sensor_id;sensor_type;location;lat;lon;timestamp;P1;durP1;ratioP1;P2;durP2;ratioP2
15287;SDS011;7745;48.708;9.026;2024-01-30T00:00:24;6.97;;;5.23;;
15287;SDS011;7745;48.708;9.026;2024-01-30T00:02:51;7.07;;;4.50;;
15287;SDS011;7745;48.708;9.026;2024-01-30T00:05:19;5.63;;;4.67;;
15287;SDS011;7745;48.708;9.026;2024-01-30T00:07:46;8.30;;;5.10;;
15287;SDS011;7745;48.708;9.026;2024-01-30T00:10:13;5.47;;;4.80;;
15287;SDS011;7745;48.708;9.026;2024-01-30T00:12:40;10.30;;;5.00;;
15287;SDS011;7745;48.708;9.026;2024-01-30T00:15:07;8.73;;;4.90;;
15287;SDS011;7745;48.708;9.026;2024-01-30T00:17:35;6.47;;;5.17;;
15287;SDS011;7745;48.708;9.026;2024-01-30T00:20:03;8.53;;;5.27;;
15287;SDS011;7745;48.708;9.026;2024-01-30T00:22:32;11.00;;;5.57;;
15287;SDS011;7745;48.708;9.026;2024-01-30T00:24:59;7.07;;;5.10;;
15287;SDS011;7745;48.708;9.026;2024-01-30T00:27:26;8.53;;;5.47;;
15287;SDS011;7745;48.708;9.026;2024-01-30T00:29:53;7.83;;;5.70;;
15287;SDS011;7745;48.708;9.026;2024-01-30T00:32:20;8.37;;;5.57;;
15287;SDS011;7745;48.708;9.026;2024-01-30T00:34:48;6.77;;;5.23;;
15287;SDS011;7745;48.708;9.026;2024-01-30T00:37:15;6.33;;;4.73;;
15287;SDS011;7745;48.708;9.026;2024-01-30T00:39:43;6.37;;;5.30;;
15287;SDS011;7745;48.708;9.026;2024-01-30T00:42:10;9.00;;;5.23;;
15287;SDS011;7745;48.708;9.026;2024-01-30T00:44:36;7.93;;;5.67;;
15287;SDS011;7745;48.708;9.026;2024-01-30T00:47:04;7.47;;;5.60;;
15287;SDS011;7745;48.708;9.026;2024-01-30T00:49:31;7.73;;;5.27;;
15287;SDS011;7745;48.708;9.026;2024-01-30T00:51:58;6.70;;;5.20;;
15287;SDS011;7745;48.708;9.026;2024-01-30T00:54:25;7.37;;;5.80;;
15287;SDS011;7745;48.708;9.026;2024-01-30T00:56:53;8.93;;;6.30;;
15287;SDS011;7745;48.708;9.026;2024-01-30T00:59:19;7.77;;;5.70;;
15287;SDS011;7745;48.708;9.026;2024-01-30T01:01:46;10.17;;;6.20;;
15287;SDS011;7745;48.708;9.026;2024-01-30T01:04:13;8.10;;;5.90;;
15287;SDS011;7745;48.708;9.026;2024-01-30T01:06:40;7.73;;;5.93;;
15287;SDS011;7745;48.708;9.026;2024-01-30T01:09:09;7.50;;;5.70;;
15287;SDS011;7745;48.708;9.026;2024-01-30T01:11:36;8.77;;;5.67;;
15287;SDS011;7745;48.708;9.026;2024-01-30T01:14:05;7.17;;;6.30;;
15287;SDS011;7745;48.708;9.026;2024-01-30T01:16:32;7.50;;;6.03;;
15287;SDS011;7745;48.708;9.026;2024-01-30T01:19:00;10.10;;;5.70;;
15287;SDS011;7745;48.708;9.026;2024-01-30T01:21:28;9.13;;;6.10;;
15287;SDS011;7745;48.708;9.026;2024-01-30T01:23:55;6.40;;;5.50;;
15287;SDS011;7745;48.708;9.026;2024-01-30T01:26:22;6.73;;;5.83;;
15287;SDS011;7745;48.708;9.026;2024-01-30T01:28:48;8.63;;;5.90;;
15287;SDS011;7745;48.708;9.026;2024-01-30T01:31:17;7.27;;;5.63;;
15287;SDS011;7745;48.708;9.026;2024-01-30T01:33:43;6.83;;;5.70;;
15287;SDS011;7745;48.708;9.026;2024-01-30T01:36:10;8.40;;;5.07;;
15287;SDS011;7745;48.708;9.026;2024-01-30T01:38:37;8.00;;;5.20;;
15287;SDS011;7745;48.708;9.026;2024-01-30T01:41:04;7.00;;;5.53;;
15287;SDS011;7745;48.708;9.026;2024-01-30T01:43:30;10.47;;;5.70;;
15287;SDS011;7745;48.708;9.026;2024-01-30T01:45:57;6.90;;;5.47;;
15287;SDS011;7745;48.708;9.026;2024-01-30T01:48:25;7.67;;;6.07;;
15287;SDS011;7745;48.708;9.026;2024-01-30T01:50:53;7.20;;;5.80;;
15287;SDS011;7745;48.708;9.026;2024-01-30T01:53:20;9.13;;;6.03;;
15287;SDS011;7745;48.708;9.026;2024-01-30T01:55:46;11.63;;;6.20;;
15287;SDS011;7745;48.708;9.026;2024-01-30T01:58:14;7.67;;;5.60;;
15287;SDS011;7745;48.708;9.026;2024-01-30T02:00:41;8.30;;;6.60;;
15287;SDS011;7745;48.708;9.026;2024-01-30T02:03:09;6.90;;;5.40;;
15287;SDS011;7745;48.708;9.026;2024-01-30T02:05:39;7.43;;;5.70;;
15287;SDS011;7745;48.708;9.026;2024-01-30T02:08:07;6.80;;;5.63;;
15287;SDS011;7745;48.708;9.026;2024-01-30T02:10:35;7.27;;;5.60;;
15287;SDS011;7745;48.708;9.026;2024-01-30T02:13:02;8.03;;;5.73;;
15287;SDS011;7745;48.708;9.026;2024-01-30T02:15:29;7.73;;;5.90;;
15287;SDS011;7745;48.708;9.026;2024-01-30T02:17:56;6.67;;;5.27;;
15287;SDS011;7745;48.708;9.026;2024-01-30T02:20:23;8.10;;;5.83;;
15287;SDS011;7745;48.708;9.026;2024-01-30T02:22:52;7.67;;;5.80;;
15287;SDS011;7745;48.708;9.026;2024-01-30T02:25:29;7.27;;;5.10;;
15287;SDS011;7745;48.708;9.026;2024-01-30T02:27:56;7.03;;;5.50;;
15287;SDS011;7745;48.708;9.026;2024-01-30T02:30:23;7.37;;;5.43;;
15287;SDS011;7745;48.708;9.026;2024-01-30T02:32:50;6.73;;;5.37;;
15287;SDS011;7745;48.708;9.026;2024-01-30T02:35:17;7.33;;;5.37;;
15287;SDS011;7745;48.708;9.026;2024-01-30T02:37:44;7.83;;;5.73;;
15287;SDS011;7745;48.708;9.026;2024-01-30T02:40:12;8.10;;;5.27;;
15287;SDS011;7745;48.708;9.026;2024-01-30T02:42:39;7.70;;;5.93;;
15287;SDS011;7745;48.708;9.026;2024-01-30T02:45:07;6.47;;;5.10;;
15287;SDS011;7745;48.708;9.026;2024-01-30T02:47:34;6.87;;;5.37;;
15287;SDS011;7745;48.708;9.026;2024-01-30T02:50:01;6.50;;;5.40;;
15287;SDS011;7745;48.708;9.026;2024-01-30T02:52:28;7.50;;;4.83;;
15287;SDS011;7745;48.708;9.026;2024-01-30T02:54:55;6.67;;;5.27;;
15287;SDS011;7745;48.708;9.026;2024-01-30T02:57:23;7.50;;;5.80;;
15287;SDS011;7745;48.708;9.026;2024-01-30T02:59:50;7.53;;;6.13;;
15287;SDS011;7745;48.708;9.026;2024-01-30T03:02:17;6.33;;;5.30;;
15287;SDS011;7745;48.708;9.026;2024-01-30T03:04:44;8.47;;;5.03;;
15287;SDS011;7745;48.708;9.026;2024-01-30T03:07:11;7.63;;;5.50;;
15287;SDS011;7745;48.708;9.026;2024-01-30T03:09:38;5.83;;;5.20;;
15287;SDS011;7745;48.708;9.026;2024-01-30T03:12:05;7.10;;;5.27;;
15287;SDS011;7745;48.708;9.026;2024-01-30T03:14:33;6.20;;;5.10;;
15287;SDS011;7745;48.708;9.026;2024-01-30T03:17:00;6.87;;;5.27;;
15287;SDS011;7745;48.708;9.026;2024-01-30T03:19:27;7.53;;;5.10;;
15287;SDS011;7745;48.708;9.026;2024-01-30T03:21:54;7.63;;;4.93;;
15287;SDS011;7745;48.708;9.026;2024-01-30T03:24:21;7.57;;;5.10;;
15287;SDS011;7745;48.708;9.026;2024-01-30T03:26:48;7.37;;;5.10;;
15287;SDS011;7745;48.708;9.026;2024-01-30T03:29:14;6.97;;;5.40;;
15287;SDS011;7745;48.708;9.026;2024-01-30T03:31:43;7.77;;;5.83;;
15287;SDS011;7745;48.708;9.026;2024-01-30T03:34:08;7.70;;;5.73;;
15287;SDS011;7745;48.708;9.026;2024-01-30T03:36:35;7.17;;;5.27;;
15287;SDS011;7745;48.708;9.026;2024-01-30T03:39:02;8.20;;;5.70;;
15287;SDS011;7745;48.708;9.026;2024-01-30T03:41:29;6.10;;;5.23;;
15287;SDS011;7745;48.708;9.026;2024-01-30T03:43:56;7.73;;;5.90;;
15287;SDS011;7745;48.708;9.026;2024-01-30T03:46:23;7.63;;;5.50;;
15287;SDS011;7745;48.708;9.026;2024-01-30T03:48:51;6.60;;;5.17;;
15287;SDS011;7745;48.708;9.026;2024-01-30T03:51:18;8.70;;;5.53;;
15287;SDS011;7745;48.708;9.026;2024-01-30T03:53:45;7.03;;;5.60;;
15287;SDS011;7745;48.708;9.026;2024-01-30T03:56:12;6.43;;;5.53;;
15287;SDS011;7745;48.708;9.026;2024-01-30T03:58:39;8.20;;;6.90;;
15287;SDS011;7745;48.708;9.026;2024-01-30T04:01:06;8.77;;;6.83;;
15287;SDS011;7745;48.708;9.026;2024-01-30T04:03:33;7.77;;;5.70;;
15287;SDS011;7745;48.708;9.026;2024-01-30T04:06:01;6.77;;;5.60;;
15287;SDS011;7745;48.708;9.026;2024-01-30T04:08:28;6.77;;;5.20;;
15287;SDS011;7745;48.708;9.026;2024-01-30T04:10:55;5.80;;;5.07;;
15287;SDS011;7745;48.708;9.026;2024-01-30T04:13:21;7.37;;;5.27;;
15287;SDS011;7745;48.708;9.026;2024-01-30T04:15:48;9.87;;;5.63;;
15287;SDS011;7745;48.708;9.026;2024-01-30T04:18:15;8.47;;;6.57;;
15287;SDS011;7745;48.708;9.026;2024-01-30T04:20:42;7.63;;;5.60;;
15287;SDS011;7745;48.708;9.026;2024-01-30T04:23:10;10.43;;;6.03;;
15287;SDS011;7745;48.708;9.026;2024-01-30T04:25:37;6.93;;;4.97;;
15287;SDS011;7745;48.708;9.026;2024-01-30T04:28:04;6.63;;;4.70;;
15287;SDS011;7745;48.708;9.026;2024-01-30T04:30:31;8.00;;;5.13;;
15287;SDS011;7745;48.708;9.026;2024-01-30T04:32:57;8.00;;;6.30;;
15287;SDS011;7745;48.708;9.026;2024-01-30T04:35:24;9.37;;;6.10;;
15287;SDS011;7745;48.708;9.026;2024-01-30T04:37:51;7.83;;;6.10;;
15287;SDS011;7745;48.708;9.026;2024-01-30T04:40:20;7.43;;;6.20;;
15287;SDS011;7745;48.708;9.026;2024-01-30T04:42:47;6.90;;;5.90;;
15287;SDS011;7745;48.708;9.026;2024-01-30T04:45:14;14.03;;;7.90;;
15287;SDS011;7745;48.708;9.026;2024-01-30T04:47:41;10.40;;;7.60;;
15287;SDS011;7745;48.708;9.026;2024-01-30T04:50:08;10.33;;;7.30;;
15287;SDS011;7745;48.708;9.026;2024-01-30T04:52:35;8.30;;;5.80;;
15287;SDS011;7745;48.708;9.026;2024-01-30T04:55:02;9.57;;;6.93;;
15287;SDS011;7745;48.708;9.026;2024-01-30T04:57:30;9.70;;;6.60;;
15287;SDS011;7745;48.708;9.026;2024-01-30T04:59:58;7.70;;;5.63;;
15287;SDS011;7745;48.708;9.026;2024-01-30T05:02:25;7.17;;;5.73;;
15287;SDS011;7745;48.708;9.026;2024-01-30T05:04:53;9.20;;;5.83;;
15287;SDS011;7745;48.708;9.026;2024-01-30T05:07:19;8.53;;;6.50;;
15287;SDS011;7745;48.708;9.026;2024-01-30T05:09:46;9.43;;;7.10;;
15287;SDS011;7745;48.708;9.026;2024-01-30T05:12:13;9.70;;;6.83;;
15287;SDS011;7745;48.708;9.026;2024-01-30T05:14:41;9.37;;;5.90;;
15287;SDS011;7745;48.708;9.026;2024-01-30T05:17:08;7.63;;;5.50;;
15287;SDS011;7745;48.708;9.026;2024-01-30T05:19:37;6.43;;;5.83;;
15287;SDS011;7745;48.708;9.026;2024-01-30T05:22:04;7.80;;;5.70;;
15287;SDS011;7745;48.708;9.026;2024-01-30T05:24:31;7.07;;;5.17;;
15287;SDS011;7745;48.708;9.026;2024-01-30T05:26:58;9.83;;;5.77;;
15287;SDS011;7745;48.708;9.026;2024-01-30T05:29:25;7.07;;;5.90;;
15287;SDS011;7745;48.708;9.026;2024-01-30T05:31:53;7.27;;;6.00;;
15287;SDS011;7745;48.708;9.026;2024-01-30T05:34:20;7.40;;;5.23;;
15287;SDS011;7745;48.708;9.026;2024-01-30T05:36:46;8.43;;;6.10;;
15287;SDS011;7745;48.708;9.026;2024-01-30T05:39:13;16.43;;;9.70;;
15287;SDS011;7745;48.708;9.026;2024-01-30T05:41:40;21.40;;;10.73;;
15287;SDS011;7745;48.708;9.026;2024-01-30T05:44:07;16.63;;;10.57;;
15287;SDS011;7745;48.708;9.026;2024-01-30T05:46:35;22.60;;;12.23;;
15287;SDS011;7745;48.708;9.026;2024-01-30T05:49:03;21.93;;;12.80;;
15287;SDS011;7745;48.708;9.026;2024-01-30T05:51:31;20.40;;;11.53;;
15287;SDS011;7745;48.708;9.026;2024-01-30T05:53:57;20.60;;;12.77;;
15287;SDS011;7745;48.708;9.026;2024-01-30T05:56:24;23.43;;;13.80;;
15287;SDS011;7745;48.708;9.026;2024-01-30T05:58:51;23.33;;;13.10;;
15287;SDS011;7745;48.708;9.026;2024-01-30T06:01:18;19.20;;;12.20;;
15287;SDS011;7745;48.708;9.026;2024-01-30T06:03:45;22.80;;;12.33;;
15287;SDS011;7745;48.708;9.026;2024-01-30T06:06:13;17.33;;;11.27;;
15287;SDS011;7745;48.708;9.026;2024-01-30T06:08:40;18.93;;;11.77;;
15287;SDS011;7745;48.708;9.026;2024-01-30T06:11:09;11.90;;;9.77;;
15287;SDS011;7745;48.708;9.026;2024-01-30T06:13:37;17.17;;;10.83;;
15287;SDS011;7745;48.708;9.026;2024-01-30T06:16:04;13.20;;;9.67;;
15287;SDS011;7745;48.708;9.026;2024-01-30T06:18:31;14.03;;;8.77;;
15287;SDS011;7745;48.708;9.026;2024-01-30T06:20:57;13.30;;;8.17;;
15287;SDS011;7745;48.708;9.026;2024-01-30T06:23:25;13.07;;;8.70;;
15287;SDS011;7745;48.708;9.026;2024-01-30T06:25:52;13.50;;;8.70;;
15287;SDS011;7745;48.708;9.026;2024-01-30T06:28:19;9.10;;;7.70;;
15287;SDS011;7745;48.708;9.026;2024-01-30T06:30:46;9.23;;;7.03;;
15287;SDS011;7745;48.708;9.026;2024-01-30T06:33:12;10.10;;;6.93;;
15287;SDS011;7745;48.708;9.026;2024-01-30T06:35:40;9.03;;;7.73;;
15287;SDS011;7745;48.708;9.026;2024-01-30T06:38:07;10.33;;;7.27;;
15287;SDS011;7745;48.708;9.026;2024-01-30T06:40:35;9.47;;;7.17;;
15287;SDS011;7745;48.708;9.026;2024-01-30T06:43:02;7.87;;;6.93;;
15287;SDS011;7745;48.708;9.026;2024-01-30T06:45:30;9.00;;;7.00;;
15287;SDS011;7745;48.708;9.026;2024-01-30T06:47:57;11.50;;;7.00;;
15287;SDS011;7745;48.708;9.026;2024-01-30T06:50:24;11.43;;;7.90;;
15287;SDS011;7745;48.708;9.026;2024-01-30T06:52:51;12.27;;;8.33;;
15287;SDS011;7745;48.708;9.026;2024-01-30T06:55:18;12.83;;;7.87;;
15287;SDS011;7745;48.708;9.026;2024-01-30T06:57:47;11.60;;;7.93;;
15287;SDS011;7745;48.708;9.026;2024-01-30T07:00:14;9.97;;;7.03;;
15287;SDS011;7745;48.708;9.026;2024-01-30T07:02:44;9.07;;;7.20;;
15287;SDS011;7745;48.708;9.026;2024-01-30T07:05:21;10.77;;;7.47;;
15287;SDS011;7745;48.708;9.026;2024-01-30T07:07:49;9.63;;;7.07;;
15287;SDS011;7745;48.708;9.026;2024-01-30T07:10:16;9.53;;;7.10;;
15287;SDS011;7745;48.708;9.026;2024-01-30T07:12:43;13.10;;;8.33;;
15287;SDS011;7745;48.708;9.026;2024-01-30T07:15:11;11.63;;;7.17;;
15287;SDS011;7745;48.708;9.026;2024-01-30T07:17:44;9.83;;;7.83;;
15287;SDS011;7745;48.708;9.026;2024-01-30T07:20:11;11.13;;;7.47;;
15287;SDS011;7745;48.708;9.026;2024-01-30T07:22:39;10.67;;;7.20;;
15287;SDS011;7745;48.708;9.026;2024-01-30T07:25:06;10.30;;;6.97;;
15287;SDS011;7745;48.708;9.026;2024-01-30T07:27:34;7.40;;;6.23;;
15287;SDS011;7745;48.708;9.026;2024-01-30T07:30:01;8.00;;;5.87;;
15287;SDS011;7745;48.708;9.026;2024-01-30T07:32:30;8.57;;;6.10;;
15287;SDS011;7745;48.708;9.026;2024-01-30T07:34:57;8.33;;;6.30;;
15287;SDS011;7745;48.708;9.026;2024-01-30T07:37:24;8.27;;;6.60;;
15287;SDS011;7745;48.708;9.026;2024-01-30T07:39:51;9.17;;;7.07;;
15287;SDS011;7745;48.708;9.026;2024-01-30T07:42:38;8.27;;;6.50;;
15287;SDS011;7745;48.708;9.026;2024-01-30T07:45:09;11.47;;;6.57;;
15287;SDS011;7745;48.708;9.026;2024-01-30T07:47:40;7.67;;;6.30;;
15287;SDS011;7745;48.708;9.026;2024-01-30T07:50:15;8.47;;;6.53;;
15287;SDS011;7745;48.708;9.026;2024-01-30T07:52:51;7.97;;;5.80;;
15287;SDS011;7745;48.708;9.026;2024-01-30T07:55:24;8.20;;;5.87;;
15287;SDS011;7745;48.708;9.026;2024-01-30T07:57:56;6.20;;;5.40;;
15287;SDS011;7745;48.708;9.026;2024-01-30T08:00:23;7.57;;;5.17;;
15287;SDS011;7745;48.708;9.026;2024-01-30T08:02:52;16.77;;;8.07;;
15287;SDS011;7745;48.708;9.026;2024-01-30T08:05:19;37.73;;;15.90;;
15287;SDS011;7745;48.708;9.026;2024-01-30T08:07:47;85.67;;;37.03;;
15287;SDS011;7745;48.708;9.026;2024-01-30T08:10:14;61.83;;;27.43;;
15287;SDS011;7745;48.708;9.026;2024-01-30T08:12:43;18.37;;;9.63;;
15287;SDS011;7745;48.708;9.026;2024-01-30T08:15:10;24.30;;;13.77;;
15287;SDS011;7745;48.708;9.026;2024-01-30T08:17:38;22.20;;;11.10;;
15287;SDS011;7745;48.708;9.026;2024-01-30T08:20:07;21.30;;;12.17;;
15287;SDS011;7745;48.708;9.026;2024-01-30T08:22:37;17.17;;;9.30;;
15287;SDS011;7745;48.708;9.026;2024-01-30T08:25:05;13.90;;;8.60;;
15287;SDS011;7745;48.708;9.026;2024-01-30T08:27:32;13.47;;;9.00;;
15287;SDS011;7745;48.708;9.026;2024-01-30T08:30:00;12.47;;;8.50;;
15287;SDS011;7745;48.708;9.026;2024-01-30T08:32:27;13.27;;;9.60;;
15287;SDS011;7745;48.708;9.026;2024-01-30T08:34:54;21.63;;;13.47;;
15287;SDS011;7745;48.708;9.026;2024-01-30T08:37:22;20.93;;;12.50;;
15287;SDS011;7745;48.708;9.026;2024-01-30T08:39:49;16.47;;;11.60;;
15287;SDS011;7745;48.708;9.026;2024-01-30T08:42:16;18.40;;;10.77;;
15287;SDS011;7745;48.708;9.026;2024-01-30T08:44:43;18.80;;;11.03;;
15287;SDS011;7745;48.708;9.026;2024-01-30T08:47:10;14.73;;;9.33;;
15287;SDS011;7745;48.708;9.026;2024-01-30T08:49:37;13.20;;;7.70;;
15287;SDS011;7745;48.708;9.026;2024-01-30T08:52:03;13.07;;;7.43;;
15287;SDS011;7745;48.708;9.026;2024-01-30T08:54:33;15.50;;;9.37;;
15287;SDS011;7745;48.708;9.026;2024-01-30T08:57:00;14.67;;;8.53;;
15287;SDS011;7745;48.708;9.026;2024-01-30T08:59:27;14.13;;;8.10;;
15287;SDS011;7745;48.708;9.026;2024-01-30T09:01:54;31.33;;;14.17;;
15287;SDS011;7745;48.708;9.026;2024-01-30T09:04:22;39.57;;;16.90;;
15287;SDS011;7745;48.708;9.026;2024-01-30T09:06:50;36.63;;;17.00;;
15287;SDS011;7745;48.708;9.026;2024-01-30T09:09:17;29.47;;;13.67;;
15287;SDS011;7745;48.708;9.026;2024-01-30T09:11:45;22.87;;;10.90;;
15287;SDS011;7745;48.708;9.026;2024-01-30T09:14:12;28.83;;;13.70;;
15287;SDS011;7745;48.708;9.026;2024-01-30T09:16:39;31.20;;;14.77;;
15287;SDS011;7745;48.708;9.026;2024-01-30T09:19:05;31.07;;;12.90;;
15287;SDS011;7745;48.708;9.026;2024-01-30T09:21:32;20.30;;;10.47;;
15287;SDS011;7745;48.708;9.026;2024-01-30T09:24:01;15.00;;;8.20;;
15287;SDS011;7745;48.708;9.026;2024-01-30T09:26:29;14.33;;;8.00;;
15287;SDS011;7745;48.708;9.026;2024-01-30T09:29:00;11.20;;;8.03;;
15287;SDS011;7745;48.708;9.026;2024-01-30T09:31:27;21.17;;;8.67;;
15287;SDS011;7745;48.708;9.026;2024-01-30T09:33:54;32.63;;;12.00;;
15287;SDS011;7745;48.708;9.026;2024-01-30T09:36:20;28.20;;;10.73;;
15287;SDS011;7745;48.708;9.026;2024-01-30T09:38:47;15.00;;;9.00;;
15287;SDS011;7745;48.708;9.026;2024-01-30T09:41:14;32.40;;;10.30;;
15287;SDS011;7745;48.708;9.026;2024-01-30T09:43:42;25.60;;;9.33;;
15287;SDS011;7745;48.708;9.026;2024-01-30T09:46:16;20.53;;;9.30;;
15287;SDS011;7745;48.708;9.026;2024-01-30T09:48:44;19.67;;;9.37;;
15287;SDS011;7745;48.708;9.026;2024-01-30T09:51:13;22.40;;;9.40;;
15287;SDS011;7745;48.708;9.026;2024-01-30T09:53:41;27.87;;;8.97;;
15287;SDS011;7745;48.708;9.026;2024-01-30T09:56:09;18.60;;;8.57;;
15287;SDS011;7745;48.708;9.026;2024-01-30T09:58:36;17.77;;;8.73;;
15287;SDS011;7745;48.708;9.026;2024-01-30T10:01:04;21.93;;;8.47;;
15287;SDS011;7745;48.708;9.026;2024-01-30T10:03:33;16.53;;;8.03;;
15287;SDS011;7745;48.708;9.026;2024-01-30T10:05:59;14.63;;;7.33;;
15287;SDS011;7745;48.708;9.026;2024-01-30T10:08:27;10.13;;;5.97;;
15287;SDS011;7745;48.708;9.026;2024-01-30T10:10:54;15.23;;;5.37;;
15287;SDS011;7745;48.708;9.026;2024-01-30T10:13:21;11.57;;;6.33;;
15287;SDS011;7745;48.708;9.026;2024-01-30T10:15:48;11.40;;;5.47;;
15287;SDS011;7745;48.708;9.026;2024-01-30T10:18:15;11.80;;;4.80;;
15287;SDS011;7745;48.708;9.026;2024-01-30T10:20:43;9.83;;;4.97;;
15287;SDS011;7745;48.708;9.026;2024-01-30T10:23:10;10.10;;;5.43;;
15287;SDS011;7745;48.708;9.026;2024-01-30T10:25:38;11.57;;;5.50;;
15287;SDS011;7745;48.708;9.026;2024-01-30T10:28:05;8.80;;;5.50;;
15287;SDS011;7745;48.708;9.026;2024-01-30T10:30:32;10.23;;;5.47;;
15287;SDS011;7745;48.708;9.026;2024-01-30T10:32:58;14.30;;;5.97;;
15287;SDS011;7745;48.708;9.026;2024-01-30T10:35:25;8.20;;;5.30;;
15287;SDS011;7745;48.708;9.026;2024-01-30T10:37:53;8.53;;;5.30;;
15287;SDS011;7745;48.708;9.026;2024-01-30T10:40:23;8.60;;;5.27;;
15287;SDS011;7745;48.708;9.026;2024-01-30T10:42:53;8.90;;;4.77;;
15287;SDS011;7745;48.708;9.026;2024-01-30T10:45:22;10.63;;;4.83;;
15287;SDS011;7745;48.708;9.026;2024-01-30T10:47:49;9.03;;;4.87;;
15287;SDS011;7745;48.708;9.026;2024-01-30T10:50:17;8.47;;;5.20;;
15287;SDS011;7745;48.708;9.026;2024-01-30T10:52:45;9.33;;;5.07;;
15287;SDS011;7745;48.708;9.026;2024-01-30T10:55:14;12.13;;;5.33;;
15287;SDS011;7745;48.708;9.026;2024-01-30T10:57:44;10.33;;;4.63;;
15287;SDS011;7745;48.708;9.026;2024-01-30T11:00:11;7.57;;;4.70;;
15287;SDS011;7745;48.708;9.026;2024-01-30T11:02:41;10.57;;;5.10;;
15287;SDS011;7745;48.708;9.026;2024-01-30T11:05:13;8.67;;;4.67;;
15287;SDS011;7745;48.708;9.026;2024-01-30T11:08:32;14.07;;;5.53;;
15287;SDS011;7745;48.708;9.026;2024-01-30T11:10:55;7.60;;;5.07;;
15287;SDS011;7745;48.708;9.026;2024-01-30T11:13:37;12.17;;;5.40;;
15287;SDS011;7745;48.708;9.026;2024-01-30T11:16:04;9.27;;;4.90;;
15287;SDS011;7745;48.708;9.026;2024-01-30T11:18:32;7.47;;;4.70;;
15287;SDS011;7745;48.708;9.026;2024-01-30T11:21:05;10.90;;;4.60;;
15287;SDS011;7745;48.708;9.026;2024-01-30T11:23:57;7.13;;;3.90;;
15287;SDS011;7745;48.708;9.026;2024-01-30T11:26:33;11.00;;;4.30;;
15287;SDS011;7745;48.708;9.026;2024-01-30T11:29:02;8.97;;;4.40;;
15287;SDS011;7745;48.708;9.026;2024-01-30T11:31:29;13.00;;;5.03;;
15287;SDS011;7745;48.708;9.026;2024-01-30T11:33:57;6.97;;;4.10;;
15287;SDS011;7745;48.708;9.026;2024-01-30T11:36:25;8.87;;;4.60;;
15287;SDS011;7745;48.708;9.026;2024-01-30T11:38:52;7.00;;;3.80;;
15287;SDS011;7745;48.708;9.026;2024-01-30T11:41:20;7.07;;;3.97;;
15287;SDS011;7745;48.708;9.026;2024-01-30T11:43:52;17.07;;;4.20;;
15287;SDS011;7745;48.708;9.026;2024-01-30T11:46:19;7.23;;;3.90;;
15287;SDS011;7745;48.708;9.026;2024-01-30T11:48:46;7.60;;;4.27;;
15287;SDS011;7745;48.708;9.026;2024-01-30T11:51:13;10.03;;;4.80;;
15287;SDS011;7745;48.708;9.026;2024-01-30T11:53:41;10.60;;;3.73;;
15287;SDS011;7745;48.708;9.026;2024-01-30T11:56:07;9.73;;;3.90;;
15287;SDS011;7745;48.708;9.026;2024-01-30T11:58:34;8.90;;;3.37;;
15287;SDS011;7745;48.708;9.026;2024-01-30T12:01:04;6.47;;;3.10;;
15287;SDS011;7745;48.708;9.026;2024-01-30T12:03:31;5.53;;;3.30;;
15287;SDS011;7745;48.708;9.026;2024-01-30T12:05:58;9.10;;;3.13;;
15287;SDS011;7745;48.708;9.026;2024-01-30T12:08:25;9.93;;;3.93;;
15287;SDS011;7745;48.708;9.026;2024-01-30T12:10:56;9.13;;;3.50;;
15287;SDS011;7745;48.708;9.026;2024-01-30T12:13:27;9.40;;;3.80;;
15287;SDS011;7745;48.708;9.026;2024-01-30T12:15:55;7.23;;;3.33;;
15287;SDS011;7745;48.708;9.026;2024-01-30T12:18:23;8.30;;;3.03;;
15287;SDS011;7745;48.708;9.026;2024-01-30T12:20:56;5.77;;;2.80;;
15287;SDS011;7745;48.708;9.026;2024-01-30T12:23:26;9.93;;;3.30;;
15287;SDS011;7745;48.708;9.026;2024-01-30T12:25:54;5.43;;;3.27;;
15287;SDS011;7745;48.708;9.026;2024-01-30T12:28:24;8.73;;;3.10;;
15287;SDS011;7745;48.708;9.026;2024-01-30T12:31:01;8.80;;;3.33;;
15287;SDS011;7745;48.708;9.026;2024-01-30T12:33:30;4.60;;;2.87;;
15287;SDS011;7745;48.708;9.026;2024-01-30T12:36:00;8.63;;;3.37;;
15287;SDS011;7745;48.708;9.026;2024-01-30T12:38:34;6.43;;;2.77;;
15287;SDS011;7745;48.708;9.026;2024-01-30T12:41:01;4.97;;;2.80;;
15287;SDS011;7745;48.708;9.026;2024-01-30T12:43:31;10.10;;;3.20;;
15287;SDS011;7745;48.708;9.026;2024-01-30T12:45:58;5.17;;;2.93;;
15287;SDS011;7745;48.708;9.026;2024-01-30T12:48:26;7.07;;;2.60;;
15287;SDS011;7745;48.708;9.026;2024-01-30T12:50:55;6.63;;;2.73;;
15287;SDS011;7745;48.708;9.026;2024-01-30T12:53:25;10.20;;;3.30;;
15287;SDS011;7745;48.708;9.026;2024-01-30T12:55:53;8.30;;;3.10;;
15287;SDS011;7745;48.708;9.026;2024-01-30T12:58:20;5.27;;;2.90;;
15287;SDS011;7745;48.708;9.026;2024-01-30T13:00:47;3.70;;;2.40;;
15287;SDS011;7745;48.708;9.026;2024-01-30T13:03:13;7.80;;;2.83;;
15287;SDS011;7745;48.708;9.026;2024-01-30T13:05:40;10.60;;;2.90;;
15287;SDS011;7745;48.708;9.026;2024-01-30T13:08:08;5.83;;;2.43;;
15287;SDS011;7745;48.708;9.026;2024-01-30T13:10:35;6.73;;;3.00;;
15287;SDS011;7745;48.708;9.026;2024-01-30T13:13:02;6.17;;;2.53;;
15287;SDS011;7745;48.708;9.026;2024-01-30T13:15:29;3.80;;;2.60;;
15287;SDS011;7745;48.708;9.026;2024-01-30T13:17:56;6.17;;;2.63;;
15287;SDS011;7745;48.708;9.026;2024-01-30T13:20:24;3.70;;;2.50;;
15287;SDS011;7745;48.708;9.026;2024-01-30T13:22:51;4.77;;;2.60;;
15287;SDS011;7745;48.708;9.026;2024-01-30T13:25:20;4.23;;;2.30;;
15287;SDS011;7745;48.708;9.026;2024-01-30T13:28:02;4.90;;;2.50;;
15287;SDS011;7745;48.708;9.026;2024-01-30T13:30:29;5.00;;;2.37;;
15287;SDS011;7745;48.708;9.026;2024-01-30T13:32:56;5.60;;;2.47;;
15287;SDS011;7745;48.708;9.026;2024-01-30T13:35:23;4.53;;;2.90;;
15287;SDS011;7745;48.708;9.026;2024-01-30T13:37:50;5.90;;;2.63;;
15287;SDS011;7745;48.708;9.026;2024-01-30T13:40:17;5.63;;;2.70;;
15287;SDS011;7745;48.708;9.026;2024-01-30T13:42:45;9.37;;;2.93;;
15287;SDS011;7745;48.708;9.026;2024-01-30T13:45:12;5.47;;;2.77;;
15287;SDS011;7745;48.708;9.026;2024-01-30T13:47:40;6.17;;;2.60;;
15287;SDS011;7745;48.708;9.026;2024-01-30T13:50:07;4.83;;;2.40;;
15287;SDS011;7745;48.708;9.026;2024-01-30T13:52:35;4.80;;;2.50;;
15287;SDS011;7745;48.708;9.026;2024-01-30T13:55:02;6.27;;;2.47;;
15287;SDS011;7745;48.708;9.026;2024-01-30T13:57:29;3.07;;;2.50;;
15287;SDS011;7745;48.708;9.026;2024-01-30T14:00:01;7.00;;;2.63;;
15287;SDS011;7745;48.708;9.026;2024-01-30T14:02:30;5.20;;;2.50;;
15287;SDS011;7745;48.708;9.026;2024-01-30T14:04:57;10.13;;;2.67;;
15287;SDS011;7745;48.708;9.026;2024-01-30T14:07:24;5.03;;;2.50;;
15287;SDS011;7745;48.708;9.026;2024-01-30T14:09:51;4.23;;;2.37;;
15287;SDS011;7745;48.708;9.026;2024-01-30T14:12:17;4.20;;;2.67;;
15287;SDS011;7745;48.708;9.026;2024-01-30T14:14:44;7.27;;;3.00;;
15287;SDS011;7745;48.708;9.026;2024-01-30T14:17:12;5.97;;;2.50;;
15287;SDS011;7745;48.708;9.026;2024-01-30T14:19:39;4.97;;;2.60;;
15287;SDS011;7745;48.708;9.026;2024-01-30T14:22:06;9.23;;;2.80;;
15287;SDS011;7745;48.708;9.026;2024-01-30T14:24:33;6.93;;;3.10;;
15287;SDS011;7745;48.708;9.026;2024-01-30T14:27:00;6.33;;;2.70;;
15287;SDS011;7745;48.708;9.026;2024-01-30T14:29:26;6.70;;;2.60;;
15287;SDS011;7745;48.708;9.026;2024-01-30T14:31:53;7.00;;;3.17;;
15287;SDS011;7745;48.708;9.026;2024-01-30T14:34:23;6.83;;;2.57;;
15287;SDS011;7745;48.708;9.026;2024-01-30T14:36:50;4.43;;;2.47;;
15287;SDS011;7745;48.708;9.026;2024-01-30T14:39:16;7.03;;;2.73;;
15287;SDS011;7745;48.708;9.026;2024-01-30T14:41:43;4.30;;;2.53;;
15287;SDS011;7745;48.708;9.026;2024-01-30T14:44:10;7.27;;;3.20;;
15287;SDS011;7745;48.708;9.026;2024-01-30T14:46:37;3.37;;;2.53;;
15287;SDS011;7745;48.708;9.026;2024-01-30T14:49:04;6.80;;;2.80;;
15287;SDS011;7745;48.708;9.026;2024-01-30T14:51:32;5.93;;;3.63;;
15287;SDS011;7745;48.708;9.026;2024-01-30T14:54:00;6.00;;;2.80;;
15287;SDS011;7745;48.708;9.026;2024-01-30T14:56:27;4.03;;;2.73;;
15287;SDS011;7745;48.708;9.026;2024-01-30T14:58:54;9.73;;;3.00;;